sensor_id;sensor_type;location;lat;lon;timestamp;pressure;altitude;pressure_sealevel;temperature;humidity
65800;BME280;52544;48.116;11.660;2023-02-28T00:00:33;96105.81;;;-3.10;86.30
65800;BME280;52544;48.116;11.660;2023-02-28T00:02:59;96105.97;;;-3.16;86.96
65800;BME280;52544;48.116;11.660;2023-02-28T00:05:25;96106.88;;;-3.17;87.03
65800;BME280;52544;48.116;11.660;2023-02-28T00:07:51;96104.41;;;-3.23;87.62
65800;BME280;52544;48.116;11.660;2023-02-28T00:10:28;96097.47;;;-3.23;87.05
65800;BME280;52544;48.116;11.660;2023-02-28T00:12:59;96101.00;;;-3.25;87.34
65800;BME280;52544;48.116;11.660;2023-02-28T00:15:25;96097.53;;;-3.24;87.20
65800;BME280;52544;48.116;11.660;2023-02-28T00:17:51;96094.13;;;-3.27;87.48
65800;BME280;52544;48.116;11.660;2023-02-28T00:20:17;96091.56;;;-3.28;87.76
65800;BME280;52544;48.116;11.660;2023-02-28T00:22:45;96101.13;;;-3.32;88.28
65800;BME280;52544;48.116;11.660;2023-02-28T00:25:12;96103.81;;;-3.35;88.40
65800;BME280;52544;48.116;11.660;2023-02-28T00:27:39;96094.31;;;-3.36;88.90
65800;BME280;52544;48.116;11.660;2023-02-28T00:30:08;96094.38;;;-3.37;89.09
65800;BME280;52544;48.116;11.660;2023-02-28T00:32:34;96084.06;;;-3.39;89.14
65800;BME280;52544;48.116;11.660;2023-02-28T00:35:00;96087.53;;;-3.40;88.36
65800;BME280;52544;48.116;11.660;2023-02-28T00:37:25;96087.59;;;-3.43;89.12
65800;BME280;52544;48.116;11.660;2023-02-28T00:39:51;96083.31;;;-3.44;89.42
65800;BME280;52544;48.116;11.660;2023-02-28T00:42:17;96085.09;;;-3.46;89.30
65800;BME280;52544;48.116;11.660;2023-02-28T00:44:42;96085.13;;;-3.49;89.77
65800;BME280;52544;48.116;11.660;2023-02-28T00:47:07;96081.72;;;-3.49;89.54
65800;BME280;52544;48.116;11.660;2023-02-28T00:49:33;96082.59;;;-3.50;89.53
65800;BME280;52544;48.116;11.660;2023-02-28T00:51:58;96087.00;;;-3.54;89.59
65800;BME280;52544;48.116;11.660;2023-02-28T00:54:24;96085.22;;;-3.52;89.80
65800;BME280;52544;48.116;11.660;2023-02-28T00:56:53;96086.13;;;-3.55;90.07
65800;BME280;52544;48.116;11.660;2023-02-28T00:59:19;96085.28;;;-3.55;89.98
65800;BME280;52544;48.116;11.660;2023-02-28T01:01:45;96083.66;;;-3.59;89.93
65800;BME280;52544;48.116;11.660;2023-02-28T01:04:11;96085.41;;;-3.60;90.31
65800;BME280;52544;48.116;11.660;2023-02-28T01:06:37;96077.63;;;-3.60;90.37
65800;BME280;52544;48.116;11.660;2023-02-28T01:09:04;96082.91;;;-3.64;90.45
65800;BME280;52544;48.116;11.660;2023-02-28T01:11:30;96078.59;;;-3.65;90.59
65800;BME280;52544;48.116;11.660;2023-02-28T01:13:56;96078.59;;;-3.65;90.89
65800;BME280;52544;48.116;11.660;2023-02-28T01:16:22;96077.75;;;-3.64;90.67
65800;BME280;52544;48.116;11.660;2023-02-28T01:18:47;96071.81;;;-3.69;90.98
65800;BME280;52544;48.116;11.660;2023-02-28T01:21:15;96067.56;;;-3.72;91.07
65800;BME280;52544;48.116;11.660;2023-02-28T01:23:42;96072.66;;;-3.69;91.66
65800;BME280;52544;48.116;11.660;2023-02-28T01:26:09;96072.69;;;-3.70;91.21
65800;BME280;52544;48.116;11.660;2023-02-28T01:28:35;96067.59;;;-3.73;91.53
65800;BME280;52544;48.116;11.660;2023-02-28T01:31:01;96060.69;;;-3.74;91.47
65800;BME280;52544;48.116;11.660;2023-02-28T01:33:26;96064.13;;;-3.72;92.20
65800;BME280;52544;48.116;11.660;2023-02-28T01:36:08;96061.53;;;-3.74;91.20
65800;BME280;52544;48.116;11.660;2023-02-28T01:38:34;96056.47;;;-3.79;91.46
65800;BME280;52544;48.116;11.660;2023-02-28T01:41:00;96050.53;;;-3.82;91.61
65800;BME280;52544;48.116;11.660;2023-02-28T01:43:28;96053.16;;;-3.84;91.22
65800;BME280;52544;48.116;11.660;2023-02-28T01:45:55;96049.56;;;-3.78;91.23
65800;BME280;52544;48.116;11.660;2023-02-28T01:48:24;96050.47;;;-3.79;91.40
65800;BME280;52544;48.116;11.660;2023-02-28T01:50:51;96053.09;;;-3.81;91.57
65800;BME280;52544;48.116;11.660;2023-02-28T01:53:29;96054.03;;;-3.85;91.80
65800;BME280;52544;48.116;11.660;2023-02-28T01:55:57;96057.56;;;-3.89;92.05
65800;BME280;52544;48.116;11.660;2023-02-28T01:58:23;96055.72;;;-3.84;91.74
65800;BME280;52544;48.116;11.660;2023-02-28T02:00:49;96046.31;;;-3.86;91.84
65800;BME280;52544;48.116;11.660;2023-02-28T02:03:16;96042.94;;;-3.90;92.16
65800;BME280;52544;48.116;11.660;2023-02-28T02:05:44;96042.91;;;-3.88;91.63
65800;BME280;52544;48.116;11.660;2023-02-28T02:08:24;96043.75;;;-3.88;92.11
65800;BME280;52544;48.116;11.660;2023-02-28T02:10:52;96042.06;;;-3.89;92.05
65800;BME280;52544;48.116;11.660;2023-02-28T02:18:48;96040.47;;;-3.96;92.40
65800;BME280;52544;48.116;11.660;2023-02-28T02:34:56;96036.28;;;-4.02;93.14
65800;BME280;52544;48.116;11.660;2023-02-28T02:37:36;96034.56;;;-4.01;93.40
65800;BME280;52544;48.116;11.660;2023-02-28T02:40:16;96027.69;;;-4.02;93.70
65800;BME280;52544;48.116;11.660;2023-02-28T02:42:56;96034.50;;;-3.99;93.72
65800;BME280;52544;48.116;11.660;2023-02-28T02:45:34;96032.88;;;-4.02;93.08
65800;BME280;52544;48.116;11.660;2023-02-28T02:48:05;96036.28;;;-4.02;93.91
65800;BME280;52544;48.116;11.660;2023-02-28T02:50:36;96027.00;;;-4.10;94.08
65800;BME280;52544;48.116;11.660;2023-02-28T02:53:04;96028.75;;;-4.11;94.78
65800;BME280;52544;48.116;11.660;2023-02-28T02:55:34;96037.28;;;-4.07;95.06
65800;BME280;52544;48.116;11.660;2023-02-28T02:58:04;96032.16;;;-4.10;94.86
65800;BME280;52544;48.116;11.660;2023-02-28T03:00:38;96026.16;;;-4.12;94.77
65800;BME280;52544;48.116;11.660;2023-02-28T03:03:05;96027.00;;;-4.10;94.96
65800;BME280;52544;48.116;11.660;2023-02-28T03:05:39;96025.22;;;-4.08;95.06
65800;BME280;52544;48.116;11.660;2023-02-28T03:08:06;96027.84;;;-4.10;94.54
65800;BME280;52544;48.116;11.660;2023-02-28T03:10:38;96026.09;;;-4.09;94.78
65800;BME280;52544;48.116;11.660;2023-02-28T03:13:42;96017.56;;;-4.11;94.36
65800;BME280;52544;48.116;11.660;2023-02-28T03:16:29;96027.94;;;-4.14;95.10
65800;BME280;52544;48.116;11.660;2023-02-28T03:19:25;96033.16;;;-4.17;95.54
65800;BME280;52544;48.116;11.660;2023-02-28T03:22:19;96031.44;;;-4.17;95.43
65800;BME280;52544;48.116;11.660;2023-02-28T03:25:17;96026.31;;;-4.18;95.90
65800;BME280;52544;48.116;11.660;2023-02-28T03:27:42;96022.03;;;-4.19;95.51
65800;BME280;52544;48.116;11.660;2023-02-28T03:30:29;96033.25;;;-4.20;96.26
65800;BME280;52544;48.116;11.660;2023-02-28T03:33:04;96031.44;;;-4.17;95.97
65800;BME280;52544;48.116;11.660;2023-02-28T03:35:39;96035.91;;;-4.23;95.73
65800;BME280;52544;48.116;11.660;2023-02-28T03:38:47;96038.50;;;-4.25;96.28
65800;BME280;52544;48.116;11.660;2023-02-28T03:41:23;96025.56;;;-4.23;96.87
65800;BME280;52544;48.116;11.660;2023-02-28T03:43:53;96035.94;;;-4.27;96.50
65800;BME280;52544;48.116;11.660;2023-02-28T03:46:23;96031.63;;;-4.26;96.90
65800;BME280;52544;48.116;11.660;2023-02-28T03:49:04;96029.09;;;-4.28;96.70
65800;BME280;52544;48.116;11.660;2023-02-28T03:51:32;96041.19;;;-4.30;96.73
65800;BME280;52544;48.116;11.660;2023-02-28T03:54:09;96038.63;;;-4.31;96.75
65800;BME280;52544;48.116;11.660;2023-02-28T03:56:41;96041.22;;;-4.31;96.98
65800;BME280;52544;48.116;11.660;2023-02-28T03:59:27;96048.13;;;-4.32;97.74
65800;BME280;52544;48.116;11.660;2023-02-28T04:01:57;96049.81;;;-4.31;98.33
65800;BME280;52544;48.116;11.660;2023-02-28T04:04:23;96049.00;;;-4.33;97.90
65800;BME280;52544;48.116;11.660;2023-02-28T04:06:51;96050.75;;;-4.35;98.42
65800;BME280;52544;48.116;11.660;2023-02-28T04:09:17;96053.28;;;-4.32;98.74
65800;BME280;52544;48.116;11.660;2023-02-28T04:11:50;96058.47;;;-4.32;98.82
65800;BME280;52544;48.116;11.660;2023-02-28T04:14:17;96067.03;;;-4.30;98.85
65800;BME280;52544;48.116;11.660;2023-02-28T04:16:43;96066.97;;;-4.27;99.09
65800;BME280;52544;48.116;11.660;2023-02-28T04:19:10;96061.78;;;-4.27;99.18
65800;BME280;52544;48.116;11.660;2023-02-28T04:21:39;96068.66;;;-4.25;99.69
65800;BME280;52544;48.116;11.660;2023-02-28T04:24:07;96061.75;;;-4.25;99.77
65800;BME280;52544;48.116;11.660;2023-02-28T04:26:34;96066.91;;;-4.23;99.69
65800;BME280;52544;48.116;11.660;2023-02-28T04:29:00;96064.28;;;-4.20;100.00
65800;BME280;52544;48.116;11.660;2023-02-28T04:31:26;96069.34;;;-4.16;100.00
65800;BME280;52544;48.116;11.660;2023-02-28T04:33:52;96070.94;;;-4.10;100.00
65800;BME280;52544;48.116;11.660;2023-02-28T04:36:17;96067.41;;;-4.06;100.00
65800;BME280;52544;48.116;11.660;2023-02-28T04:38:44;96075.13;;;-4.03;100.00
65800;BME280;52544;48.116;11.660;2023-02-28T04:41:10;96064.69;;;-4.00;99.90
65800;BME280;52544;48.116;11.660;2023-02-28T04:43:35;96062.94;;;-3.98;100.00
65800;BME280;52544;48.116;11.660;2023-02-28T04:46:02;96070.66;;;-3.95;100.00
65800;BME280;52544;48.116;11.660;2023-02-28T04:48:30;96067.09;;;-3.91;100.00
65800;BME280;52544;48.116;11.660;2023-02-28T04:51:00;96063.63;;;-3.90;100.00
65800;BME280;52544;48.116;11.660;2023-02-28T04:53:27;96062.69;;;-3.87;100.00
65800;BME280;52544;48.116;11.660;2023-02-28T04:55:54;96066.19;;;-3.88;100.00
65800;BME280;52544;48.116;11.660;2023-02-28T04:58:19;96069.50;;;-3.82;100.00
65800;BME280;52544;48.116;11.660;2023-02-28T05:00:47;96065.16;;;-3.81;100.00
65800;BME280;52544;48.116;11.660;2023-02-28T05:03:12;96072.88;;;-3.80;100.00
65800;BME280;52544;48.116;11.660;2023-02-28T05:05:38;96079.75;;;-3.79;100.00
65800;BME280;52544;48.116;11.660;2023-02-28T05:08:03;96083.19;;;-3.77;100.00
65800;BME280;52544;48.116;11.660;2023-02-28T05:10:30;96086.56;;;-3.74;100.00
65800;BME280;52544;48.116;11.660;2023-02-28T05:12:55;96082.16;;;-3.69;100.00
65800;BME280;52544;48.116;11.660;2023-02-28T05:15:21;96089.84;;;-3.66;100.00
65800;BME280;52544;48.116;11.660;2023-02-28T05:17:46;96092.41;;;-3.65;100.00
65800;BME280;52544;48.116;11.660;2023-02-28T05:20:12;96091.47;;;-3.62;100.00
65800;BME280;52544;48.116;11.660;2023-02-28T05:22:39;96084.47;;;-3.57;100.00
65800;BME280;52544;48.116;11.660;2023-02-28T05:25:05;96087.00;;;-3.54;99.99
65800;BME280;52544;48.116;11.660;2023-02-28T05:27:30;96088.63;;;-3.50;100.00
65800;BME280;52544;48.116;11.660;2023-02-28T05:29:56;96085.97;;;-3.47;100.00
65800;BME280;52544;48.116;11.660;2023-02-28T05:32:22;96097.13;;;-3.43;99.60
65800;BME280;52544;48.116;11.660;2023-02-28T05:34:48;96095.31;;;-3.41;99.89
65800;BME280;52544;48.116;11.660;2023-02-28T05:37:14;96090.97;;;-3.39;99.48
65800;BME280;52544;48.116;11.660;2023-02-28T05:39:41;96096.91;;;-3.36;99.74
65800;BME280;52544;48.116;11.660;2023-02-28T05:42:06;96091.69;;;-3.33;98.96
65800;BME280;52544;48.116;11.660;2023-02-28T05:44:32;96090.78;;;-3.32;99.33
65800;BME280;52544;48.116;11.660;2023-02-28T05:46:57;96092.47;;;-3.29;99.34
65800;BME280;52544;48.116;11.660;2023-02-28T05:49:23;96088.13;;;-3.29;98.83
65800;BME280;52544;48.116;11.660;2023-02-28T05:51:48;96084.63;;;-3.26;98.92
65800;BME280;52544;48.116;11.660;2023-02-28T05:54:13;96095.78;;;-3.22;98.55
65800;BME280;52544;48.116;11.660;2023-02-28T05:56:39;96095.78;;;-3.22;98.19
65800;BME280;52544;48.116;11.660;2023-02-28T05:59:06;96094.03;;;-3.23;97.89
65800;BME280;52544;48.116;11.660;2023-02-28T06:01:35;96099.22;;;-3.23;97.59
65800;BME280;52544;48.116;11.660;2023-02-28T06:04:01;96108.63;;;-3.19;96.96
65800;BME280;52544;48.116;11.660;2023-02-28T06:06:28;96105.19;;;-3.20;97.21
65800;BME280;52544;48.116;11.660;2023-02-28T06:08:55;96106.03;;;-3.19;97.13
65800;BME280;52544;48.116;11.660;2023-02-28T06:11:21;96105.06;;;-3.15;96.69
65800;BME280;52544;48.116;11.660;2023-02-28T06:13:46;96105.81;;;-3.10;96.62
65800;BME280;52544;48.116;11.660;2023-02-28T06:16:12;96109.38;;;-3.14;96.20
65800;BME280;52544;48.116;11.660;2023-02-28T06:18:37;96111.03;;;-3.12;95.88
65800;BME280;52544;48.116;11.660;2023-02-28T06:21:03;96117.91;;;-3.09;96.17
65800;BME280;52544;48.116;11.660;2023-02-28T06:23:29;96116.09;;;-3.07;95.72
65800;BME280;52544;48.116;11.660;2023-02-28T06:25:54;96118.69;;;-3.06;95.87
65800;BME280;52544;48.116;11.660;2023-02-28T06:28:24;96122.03;;;-3.02;95.89
65800;BME280;52544;48.116;11.660;2023-02-28T06:30:49;96122.91;;;-3.02;95.70
65800;BME280;52544;48.116;11.660;2023-02-28T06:33:14;96126.41;;;-3.04;95.08
65800;BME280;52544;48.116;11.660;2023-02-28T06:35:43;96118.63;;;-3.04;94.87
65800;BME280;52544;48.116;11.660;2023-02-28T06:38:09;96123.75;;;-3.03;94.37
65800;BME280;52544;48.116;11.660;2023-02-28T06:40:34;96122.91;;;-3.03;93.79
65800;BME280;52544;48.116;11.660;2023-02-28T06:43:00;96135.91;;;-3.05;94.13
65800;BME280;52544;48.116;11.660;2023-02-28T06:45:26;96142.72;;;-3.00;94.30
65800;BME280;52544;48.116;11.660;2023-02-28T06:47:51;96136.69;;;-3.01;94.19
65800;BME280;52544;48.116;11.660;2023-02-28T06:50:17;96140.09;;;-2.99;94.10
65800;BME280;52544;48.116;11.660;2023-02-28T06:52:44;96139.19;;;-2.96;94.32
65800;BME280;52544;48.116;11.660;2023-02-28T06:55:10;96147.78;;;-2.96;93.98
65800;BME280;52544;48.116;11.660;2023-02-28T06:57:36;96140.03;;;-2.97;93.69
65800;BME280;52544;48.116;11.660;2023-02-28T07:00:05;96142.75;;;-3.02;93.50
65800;BME280;52544;48.116;11.660;2023-02-28T07:02:33;96145.28;;;-2.99;94.32
65800;BME280;52544;48.116;11.660;2023-02-28T07:04:59;96161.53;;;-2.94;94.06
65800;BME280;52544;48.116;11.660;2023-02-28T07:07:24;96151.22;;;-2.95;93.98
65800;BME280;52544;48.116;11.660;2023-02-28T07:09:49;96162.50;;;-2.98;93.02
65800;BME280;52544;48.116;11.660;2023-02-28T07:12:15;96160.75;;;-2.96;93.66
65800;BME280;52544;48.116;11.660;2023-02-28T07:14:40;96170.94;;;-2.90;93.41
65800;BME280;52544;48.116;11.660;2023-02-28T07:17:10;96158.81;;;-2.88;93.81
65800;BME280;52544;48.116;11.660;2023-02-28T07:19:38;96157.03;;;-2.86;93.97
65800;BME280;52544;48.116;11.660;2023-02-28T07:22:04;96158.72;;;-2.85;93.67
65800;BME280;52544;48.116;11.660;2023-02-28T07:24:30;96161.41;;;-2.88;93.40
65800;BME280;52544;48.116;11.660;2023-02-28T07:26:55;96159.63;;;-2.84;93.61
65800;BME280;52544;48.116;11.660;2023-02-28T07:29:21;96155.22;;;-2.82;93.45
65800;BME280;52544;48.116;11.660;2023-02-28T07:31:46;96160.53;;;-2.87;93.52
65800;BME280;52544;48.116;11.660;2023-02-28T07:34:13;96170.81;;;-2.84;93.90
65800;BME280;52544;48.116;11.660;2023-02-28T07:36:38;96170.72;;;-2.79;93.30
65800;BME280;52544;48.116;11.660;2023-02-28T07:39:04;96162.00;;;-2.77;93.58
65800;BME280;52544;48.116;11.660;2023-02-28T07:41:30;96162.81;;;-2.74;93.80
65800;BME280;52544;48.116;11.660;2023-02-28T07:43:58;96161.97;;;-2.75;93.01
65800;BME280;52544;48.116;11.660;2023-02-28T07:46:25;96164.53;;;-2.73;92.49
65800;BME280;52544;48.116;11.660;2023-02-28T07:48:50;96157.63;;;-2.74;92.35
65800;BME280;52544;48.116;11.660;2023-02-28T07:51:16;96159.34;;;-2.73;92.28
65800;BME280;52544;48.116;11.660;2023-02-28T07:53:41;96153.25;;;-2.72;92.75
65800;BME280;52544;48.116;11.660;2023-02-28T07:56:07;96162.72;;;-2.70;92.86
65800;BME280;52544;48.116;11.660;2023-02-28T07:58:32;96160.00;;;-2.65;93.00
65800;BME280;52544;48.116;11.660;2023-02-28T08:01:07;96164.19;;;-2.60;93.16
65800;BME280;52544;48.116;11.660;2023-02-28T08:03:33;96155.66;;;-2.65;93.00
65800;BME280;52544;48.116;11.660;2023-02-28T08:05:59;96165.13;;;-2.64;92.55
65800;BME280;52544;48.116;11.660;2023-02-28T08:08:24;96167.63;;;-2.59;92.67
65800;BME280;52544;48.116;11.660;2023-02-28T08:10:58;96167.59;;;-2.58;93.44
65800;BME280;52544;48.116;11.660;2023-02-28T08:13:24;96177.00;;;-2.54;93.18
65800;BME280;52544;48.116;11.660;2023-02-28T08:15:50;96179.66;;;-2.57;92.06
65800;BME280;52544;48.116;11.660;2023-02-28T08:18:15;96179.59;;;-2.55;91.48
65800;BME280;52544;48.116;11.660;2023-02-28T08:20:41;96179.72;;;-2.58;91.66
65800;BME280;52544;48.116;11.660;2023-02-28T08:23:06;96180.63;;;-2.61;91.61
65800;BME280;52544;48.116;11.660;2023-02-28T08:25:32;96179.59;;;-2.54;91.60
65800;BME280;52544;48.116;11.660;2023-02-28T08:27:57;96191.88;;;-2.62;90.59
65800;BME280;52544;48.116;11.660;2023-02-28T08:30:22;96192.78;;;-2.64;91.19
65800;BME280;52544;48.116;11.660;2023-02-28T08:32:48;96185.06;;;-2.66;91.67
65800;BME280;52544;48.116;11.660;2023-02-28T08:35:13;96190.19;;;-2.63;91.63
65800;BME280;52544;48.116;11.660;2023-02-28T08:37:39;96184.06;;;-2.60;92.08
65800;BME280;52544;48.116;11.660;2023-02-28T08:40:04;96184.84;;;-2.57;92.32
65800;BME280;52544;48.116;11.660;2023-02-28T08:42:31;96183.09;;;-2.55;92.06
65800;BME280;52544;48.116;11.660;2023-02-28T08:44:57;96191.72;;;-2.56;91.88
65800;BME280;52544;48.116;11.660;2023-02-28T08:47:22;96204.53;;;-2.49;91.66
65800;BME280;52544;48.116;11.660;2023-02-28T08:49:47;96196.66;;;-2.45;91.73
65800;BME280;52544;48.116;11.660;2023-02-28T08:52:13;96202.50;;;-2.37;91.63
65800;BME280;52544;48.116;11.660;2023-02-28T08:54:38;96205.91;;;-2.35;91.07
65800;BME280;52544;48.116;11.660;2023-02-28T08:57:04;96205.75;;;-2.29;91.45
65800;BME280;52544;48.116;11.660;2023-02-28T08:59:30;96206.59;;;-2.28;91.18
65800;BME280;52544;48.116;11.660;2023-02-28T09:01:55;96204.69;;;-2.21;91.05
65800;BME280;52544;48.116;11.660;2023-02-28T09:04:21;96207.16;;;-2.15;91.19
65800;BME280;52544;48.116;11.660;2023-02-28T09:06:47;96209.63;;;-2.11;90.80
65800;BME280;52544;48.116;11.660;2023-02-28T09:09:14;96211.25;;;-2.08;90.06
65800;BME280;52544;48.116;11.660;2023-02-28T09:11:40;96207.91;;;-2.12;89.24
65800;BME280;52544;48.116;11.660;2023-02-28T09:14:05;96212.09;;;-2.06;88.89
65800;BME280;52544;48.116;11.660;2023-02-28T09:16:32;96207.69;;;-2.03;88.89
65800;BME280;52544;48.116;11.660;2023-02-28T09:18:57;96207.69;;;-2.03;88.42
65800;BME280;52544;48.116;11.660;2023-02-28T09:21:23;96221.56;;;-2.05;88.37
65800;BME280;52544;48.116;11.660;2023-02-28T09:23:49;96217.97;;;-1.99;88.23
65800;BME280;52544;48.116;11.660;2023-02-28T09:26:16;96221.56;;;-2.04;87.90
65800;BME280;52544;48.116;11.660;2023-02-28T09:28:42;96220.66;;;-2.04;87.17
65800;BME280;52544;48.116;11.660;2023-02-28T09:31:12;96225.00;;;-2.05;88.35
65800;BME280;52544;48.116;11.660;2023-02-28T09:33:39;96232.78;;;-2.03;87.48
65800;BME280;52544;48.116;11.660;2023-02-28T09:36:05;96237.97;;;-2.03;87.65
65800;BME280;52544;48.116;11.660;2023-02-28T09:38:31;96238.03;;;-2.06;88.26
65800;BME280;52544;48.116;11.660;2023-02-28T09:40:59;96233.63;;;-2.03;88.04
65800;BME280;52544;48.116;11.660;2023-02-28T09:43:29;96242.97;;;-1.97;87.65
65800;BME280;52544;48.116;11.660;2023-02-28T09:46:02;96246.22;;;-1.89;88.32
65800;BME280;52544;48.116;11.660;2023-02-28T09:48:38;96245.19;;;-1.82;88.15
65800;BME280;52544;48.116;11.660;2023-02-28T09:51:15;96245.84;;;-1.73;88.39
65800;BME280;52544;48.116;11.660;2023-02-28T09:53:48;96249.22;;;-1.71;88.17
65800;BME280;52544;48.116;11.660;2023-02-28T09:56:20;96255.13;;;-1.65;87.91
65800;BME280;52544;48.116;11.660;2023-02-28T09:59:02;96254.28;;;-1.65;87.21
65800;BME280;52544;48.116;11.660;2023-02-28T10:01:57;96253.38;;;-1.64;87.81
65800;BME280;52544;48.116;11.660;2023-02-28T10:07:19;96250.81;;;-1.35;87.26
65800;BME280;52544;48.116;11.660;2023-02-28T10:09:52;96252.25;;;-1.24;86.61
65800;BME280;52544;48.116;11.660;2023-02-28T10:12:19;96249.50;;;-1.18;86.01
65800;BME280;52544;48.116;11.660;2023-02-28T10:14:47;96252.97;;;-1.19;84.79
65800;BME280;52544;48.116;11.660;2023-02-28T10:17:21;96251.19;;;-1.17;83.79
65800;BME280;52544;48.116;11.660;2023-02-28T10:20:03;96262.13;;;-1.06;82.88
65800;BME280;52544;48.116;11.660;2023-02-28T10:22:37;96260.88;;;-0.93;83.18
65800;BME280;52544;48.116;11.660;2023-02-28T10:25:22;96260.03;;;-0.93;81.31
65800;BME280;52544;48.116;11.660;2023-02-28T10:27:50;96258.66;;;-0.77;80.87
65800;BME280;52544;48.116;11.660;2023-02-28T10:30:18;96262.00;;;-0.73;80.18
65800;BME280;52544;48.116;11.660;2023-02-28T10:32:50;96261.72;;;-0.64;79.29
65800;BME280;52544;48.116;11.660;2023-02-28T10:35:21;96260.28;;;-0.45;79.34
65800;BME280;52544;48.116;11.660;2023-02-28T10:37:49;96265.41;;;-0.42;78.66
65800;BME280;52544;48.116;11.660;2023-02-28T10:43:04;96265.84;;;-0.29;77.29
65800;BME280;52544;48.116;11.660;2023-02-28T10:45:34;96257.44;;;-0.11;78.44
65800;BME280;52544;48.116;11.660;2023-02-28T10:48:03;96264.63;;;0.08;78.42
65800;BME280;52544;48.116;11.660;2023-02-28T10:50:50;96267.34;;;0.30;77.12
65800;BME280;52544;48.116;11.660;2023-02-28T10:55:58;96268.84;;;0.37;75.03
65800;BME280;52544;48.116;11.660;2023-02-28T10:58:28;96268.84;;;0.37;75.48
65800;BME280;52544;48.116;11.660;2023-02-28T11:00:54;96271.53;;;0.35;75.57
65800;BME280;52544;48.116;11.660;2023-02-28T11:03:46;96274.28;;;0.31;75.46
65800;BME280;52544;48.116;11.660;2023-02-28T11:06:23;96273.22;;;0.36;76.21
65800;BME280;52544;48.116;11.660;2023-02-28T11:08:56;96277.50;;;0.39;75.68
65800;BME280;52544;48.116;11.660;2023-02-28T11:11:24;96275.88;;;0.35;75.29
65800;BME280;52544;48.116;11.660;2023-02-28T11:13:53;96269.59;;;0.40;76.34
65800;BME280;52544;48.116;11.660;2023-02-28T11:16:20;96269.53;;;0.42;75.64
65800;BME280;52544;48.116;11.660;2023-02-28T11:18:55;96270.94;;;0.52;76.15
65800;BME280;52544;48.116;11.660;2023-02-28T11:21:27;96275.00;;;0.59;76.54
65800;BME280;52544;48.116;11.660;2023-02-28T11:24:04;96264.59;;;0.59;75.19
65800;BME280;52544;48.116;11.660;2023-02-28T11:26:46;96268.78;;;0.63;75.50
65800;BME280;52544;48.116;11.660;2023-02-28T11:29:18;96272.38;;;0.61;74.78
65800;BME280;52544;48.116;11.660;2023-02-28T11:32:01;96267.19;;;0.59;74.47
65800;BME280;52544;48.116;11.660;2023-02-28T11:34:27;96264.50;;;0.62;74.50
65800;BME280;52544;48.116;11.660;2023-02-28T11:36:55;96260.38;;;0.57;73.81
65800;BME280;52544;48.116;11.660;2023-02-28T11:39:23;96257.69;;;0.58;74.78
65800;BME280;52544;48.116;11.660;2023-02-28T11:45:11;96248.59;;;0.70;74.49
65800;BME280;52544;48.116;11.660;2023-02-28T11:50:49;96245.72;;;1.01;73.83
65800;BME280;52544;48.116;11.660;2023-02-28T11:58:36;96230.88;;;1.70;70.51
65800;BME280;52544;48.116;11.660;2023-02-28T12:04:17;96230.41;;;1.81;66.97
65800;BME280;52544;48.116;11.660;2023-02-28T12:06:57;96230.06;;;2.11;65.17
65800;BME280;52544;48.116;11.660;2023-02-28T12:12:38;96227.72;;;2.25;64.38
65800;BME280;52544;48.116;11.660;2023-02-28T12:20:25;96210.25;;;3.24;62.15
65800;BME280;52544;48.116;11.660;2023-02-28T12:25:41;96213.69;;;2.87;60.30
65800;BME280;52544;48.116;11.660;2023-02-28T12:28:16;96211.94;;;2.67;62.08
65800;BME280;52544;48.116;11.660;2023-02-28T12:30:54;96203.94;;;2.91;63.04
65800;BME280;52544;48.116;11.660;2023-02-28T12:33:25;96202.75;;;2.98;61.91
65800;BME280;52544;48.116;11.660;2023-02-28T12:35:54;96197.91;;;3.26;62.22
65800;BME280;52544;48.116;11.660;2023-02-28T12:38:41;96198.81;;;3.63;61.23
65800;BME280;52544;48.116;11.660;2023-02-28T12:41:14;96197.53;;;3.89;58.97
65800;BME280;52544;48.116;11.660;2023-02-28T12:43:45;96196.22;;;3.81;58.19
65800;BME280;52544;48.116;11.660;2023-02-28T12:46:19;96195.47;;;4.13;58.39
65800;BME280;52544;48.116;11.660;2023-02-28T12:48:50;96187.91;;;3.90;56.33
65800;BME280;52544;48.116;11.660;2023-02-28T12:51:18;96191.91;;;3.80;56.91
65800;BME280;52544;48.116;11.660;2023-02-28T12:54:20;96178.03;;;3.95;57.17
65800;BME280;52544;48.116;11.660;2023-02-28T12:57:00;96189.28;;;4.32;57.52
65800;BME280;52544;48.116;11.660;2023-02-28T12:59:49;96171.22;;;4.60;54.16
65800;BME280;52544;48.116;11.660;2023-02-28T13:02:52;96176.97;;;5.00;53.18
65800;BME280;52544;48.116;11.660;2023-02-28T13:05:56;96179.25;;;5.06;53.08
65800;BME280;52544;48.116;11.660;2023-02-28T13:11:33;96174.88;;;4.73;53.04
65800;BME280;52544;48.116;11.660;2023-02-28T13:14:01;96188.22;;;4.36;54.19
65800;BME280;52544;48.116;11.660;2023-02-28T13:16:27;96197.91;;;3.99;55.29
65800;BME280;52544;48.116;11.660;2023-02-28T13:19:08;96188.06;;;3.50;56.96
65800;BME280;52544;48.116;11.660;2023-02-28T13:21:43;96189.25;;;3.07;58.53
65800;BME280;52544;48.116;11.660;2023-02-28T13:24:09;96188.44;;;3.05;59.35
65800;BME280;52544;48.116;11.660;2023-02-28T13:47:58;96190.91;;;2.31;62.73
65800;BME280;52544;48.116;11.660;2023-02-28T13:58:42;96188.72;;;2.41;64.76
65800;BME280;52544;48.116;11.660;2023-02-28T14:06:32;96196.91;;;2.33;63.49
65800;BME280;52544;48.116;11.660;2023-02-28T14:09:17;96195.00;;;2.37;64.23
65800;BME280;52544;48.116;11.660;2023-02-28T14:11:46;96197.09;;;2.49;63.35
65800;BME280;52544;48.116;11.660;2023-02-28T14:17:03;96185.84;;;3.05;60.77
65800;BME280;52544;48.116;11.660;2023-02-28T14:19:31;96182.94;;;3.30;59.90
65800;BME280;52544;48.116;11.660;2023-02-28T14:25:08;96184.84;;;2.89;61.13
65800;BME280;52544;48.116;11.660;2023-02-28T14:35:58;96184.63;;;2.56;63.68
65800;BME280;52544;48.116;11.660;2023-02-28T14:38:33;96184.00;;;2.69;63.13
65800;BME280;52544;48.116;11.660;2023-02-28T14:41:04;96176.44;;;2.82;62.91
65800;BME280;52544;48.116;11.660;2023-02-28T14:43:31;96186.78;;;2.85;62.16
65800;BME280;52544;48.116;11.660;2023-02-28T14:46:00;96175.31;;;2.69;61.76
65800;BME280;52544;48.116;11.660;2023-02-28T14:48:26;96181.34;;;2.50;61.64